createdAt,value
2023-03-21T00:01:54.540Z,8.10
2023-03-21T00:04:22.062Z,8.10
2023-03-21T00:06:48.933Z,8.10
2023-03-21T00:09:15.778Z,8.20
2023-03-21T00:11:42.624Z,8.20
2023-03-21T00:14:09.277Z,8.20
2023-03-21T00:16:37.407Z,8.20
2023-03-21T00:19:06.652Z,8.20
2023-03-21T00:21:48.840Z,8.30
2023-03-21T00:24:20.302Z,8.30
2023-03-21T00:26:46.903Z,8.30
2023-03-21T00:29:13.520Z,8.30
2023-03-21T00:31:40.144Z,8.30
2023-03-21T00:34:06.865Z,8.30
2023-03-21T00:36:33.480Z,8.20
2023-03-21T00:39:00.882Z,8.20
2023-03-21T00:41:41.444Z,8.20
2023-03-21T00:44:14.377Z,8.10
2023-03-21T00:46:49.346Z,8.10
2023-03-21T00:49:23.907Z,8.00
2023-03-21T00:51:51.326Z,8.00
2023-03-21T00:54:18.141Z,8.10
2023-03-21T00:56:44.714Z,8.10
2023-03-21T00:59:11.352Z,8.10
2023-03-21T01:01:38.171Z,8.10
2023-03-21T01:04:07.516Z,8.20
2023-03-21T01:06:39.646Z,8.20
2023-03-21T01:09:08.130Z,8.30
2023-03-21T01:11:34.964Z,8.30
2023-03-21T01:14:21.034Z,8.30
2023-03-21T01:16:49.107Z,8.30
2023-03-21T01:19:25.103Z,8.30
2023-03-21T01:21:54.645Z,8.30
2023-03-21T01:24:21.345Z,8.20
2023-03-21T01:26:47.925Z,8.20
2023-03-21T01:29:14.529Z,8.20
2023-03-21T01:31:41.253Z,8.20
2023-03-21T01:34:07.973Z,8.30
2023-03-21T01:36:34.598Z,8.30
2023-03-21T01:39:01.261Z,8.40
2023-03-21T01:41:42.097Z,8.40
2023-03-21T01:44:17.376Z,8.40
2023-03-21T01:47:03.572Z,8.40
2023-03-21T01:49:38.609Z,8.40
2023-03-21T01:52:13.061Z,8.30
2023-03-21T01:54:43.034Z,8.30
2023-03-21T01:57:13.705Z,8.20
2023-03-21T01:59:50.091Z,8.20
2023-03-21T02:02:20.836Z,8.20
2023-03-21T02:04:51.350Z,8.20
2023-03-21T02:07:20.116Z,8.20
2023-03-21T02:09:48.794Z,8.20
2023-03-21T02:12:16.366Z,8.30
2023-03-21T02:14:43.391Z,8.30
2023-03-21T02:17:16.113Z,8.30
2023-03-21T02:20:01.850Z,8.30
2023-03-21T02:22:47.189Z,8.40
2023-03-21T02:25:24.437Z,8.40
2023-03-21T02:27:54.942Z,8.40
2023-03-21T02:30:45.587Z,8.40
2023-03-21T02:33:34.878Z,8.40
2023-03-21T02:36:16.714Z,8.40
2023-03-21T02:38:51.174Z,8.30
2023-03-21T02:41:20.280Z,8.30
2023-03-21T02:43:49.905Z,8.30
2023-03-21T02:46:18.575Z,8.30
2023-03-21T02:49:06.269Z,8.30
2023-03-21T02:51:34.371Z,8.30
2023-03-21T02:54:26.385Z,8.30
2023-03-21T02:56:52.402Z,8.30
2023-03-21T02:59:20.862Z,8.30
2023-03-21T03:01:47.656Z,8.30
2023-03-21T03:04:21.782Z,8.40
2023-03-21T03:06:48.431Z,8.30
2023-03-21T03:09:28.438Z,8.30
2023-03-21T03:12:02.588Z,8.40
2023-03-21T03:14:49.510Z,8.40
2023-03-21T03:17:21.797Z,8.30
2023-03-21T03:19:54.996Z,8.30
2023-03-21T03:22:25.563Z,8.40
2023-03-21T03:25:04.769Z,8.40
2023-03-21T03:27:42.188Z,8.40
2023-03-21T03:30:09.732Z,8.30
2023-03-21T03:32:40.021Z,8.30
2023-03-21T03:35:07.044Z,8.30
2023-03-21T03:37:34.806Z,8.30
2023-03-21T03:40:05.928Z,8.30
2023-03-21T03:42:37.188Z,8.30
2023-03-21T03:45:07.366Z,8.20
2023-03-21T03:47:44.708Z,8.10
2023-03-21T03:50:26.520Z,8.10
2023-03-21T03:52:57.792Z,8.10
2023-03-21T03:55:28.207Z,8.10
2023-03-21T03:57:55.281Z,8.10
2023-03-21T04:00:21.928Z,8.10
2023-03-21T04:02:48.635Z,8.10
2023-03-21T04:05:15.361Z,8.10
2023-03-21T04:07:41.965Z,8.00
2023-03-21T04:10:08.899Z,7.90
2023-03-21T04:12:35.527Z,7.90
2023-03-21T04:15:09.961Z,7.90
2023-03-21T04:17:39.444Z,7.90
2023-03-21T04:20:12.031Z,7.90
2023-03-21T04:22:41.973Z,7.90
2023-03-21T04:25:09.160Z,7.90
2023-03-21T04:27:36.186Z,7.90
2023-03-21T04:30:19.755Z,7.90
2023-03-21T04:32:53.942Z,7.90
2023-03-21T04:35:21.178Z,7.80
2023-03-21T04:37:48.113Z,7.80
2023-03-21T04:40:20.168Z,7.80
2023-03-21T04:42:47.609Z,7.80
2023-03-21T04:45:15.649Z,7.80
2023-03-21T04:47:42.767Z,7.80
2023-03-21T04:50:10.662Z,7.80
2023-03-21T04:52:37.356Z,7.80
2023-03-21T04:55:04.105Z,7.90
2023-03-21T04:57:31.060Z,7.90
2023-03-21T04:59:57.731Z,7.70
2023-03-21T05:02:24.421Z,7.70
2023-03-21T05:04:51.160Z,7.70
2023-03-21T05:07:17.725Z,7.80
2023-03-21T05:09:44.304Z,7.90
2023-03-21T05:12:11.086Z,7.90
2023-03-21T05:14:37.673Z,7.90
2023-03-21T05:17:05.558Z,7.90
2023-03-21T05:19:35.836Z,7.80
2023-03-21T05:22:04.654Z,7.90
2023-03-21T05:24:32.697Z,7.80
2023-03-21T05:27:03.220Z,7.90
2023-03-21T05:29:30.353Z,7.90
2023-03-21T05:31:57.976Z,7.90
2023-03-21T05:34:24.971Z,7.90
2023-03-21T05:36:51.583Z,7.90
2023-03-21T05:39:18.752Z,8.00
2023-03-21T05:41:45.525Z,8.00
2023-03-21T05:44:12.182Z,8.00
2023-03-21T05:46:38.825Z,8.00
2023-03-21T05:49:05.514Z,8.00
2023-03-21T05:51:32.149Z,8.00
2023-03-21T05:53:58.796Z,8.00
2023-03-21T05:56:25.421Z,8.00
2023-03-21T05:58:52.042Z,8.00
2023-03-21T06:01:18.906Z,8.10
2023-03-21T06:03:45.671Z,8.20
2023-03-21T06:06:12.385Z,8.20
2023-03-21T06:08:39.050Z,8.30
2023-03-21T06:11:06.464Z,8.30
2023-03-21T06:13:33.098Z,8.40
2023-03-21T06:15:59.755Z,8.40
2023-03-21T06:18:28.046Z,8.40
2023-03-21T06:20:55.055Z,8.50
2023-03-21T06:23:21.781Z,8.50
2023-03-21T06:25:51.311Z,8.50
2023-03-21T06:28:17.895Z,8.50
2023-03-21T06:30:44.534Z,8.60
2023-03-21T06:33:11.137Z,8.60
2023-03-21T06:35:38.117Z,8.70
2023-03-21T06:38:05.040Z,8.70
2023-03-21T06:40:31.667Z,8.80
2023-03-21T06:42:58.306Z,8.80
2023-03-21T06:45:25.588Z,8.90
2023-03-21T06:47:52.270Z,9.00
2023-03-21T06:50:19.054Z,9.10
2023-03-21T06:52:45.680Z,9.20
2023-03-21T06:55:12.522Z,9.30
2023-03-21T06:57:39.136Z,9.40
2023-03-21T07:00:06.101Z,9.50
2023-03-21T07:02:32.833Z,9.50
2023-03-21T07:04:59.506Z,9.60
2023-03-21T07:07:27.272Z,9.70
2023-03-21T07:09:54.034Z,9.80
2023-03-21T07:12:20.648Z,9.90
2023-03-21T07:14:47.289Z,10.00
2023-03-21T07:17:13.929Z,10.10
2023-03-21T07:19:40.573Z,10.20
2023-03-21T07:22:07.246Z,10.30
2023-03-21T07:24:33.860Z,10.40
2023-03-21T07:27:00.665Z,10.40
2023-03-21T07:29:27.291Z,10.60
2023-03-21T07:31:53.928Z,10.60
2023-03-21T07:34:20.774Z,10.70
2023-03-21T07:36:47.465Z,10.80
2023-03-21T07:39:14.167Z,10.90
2023-03-21T07:41:40.899Z,11.00
2023-03-21T07:44:07.601Z,11.10
2023-03-21T07:46:34.292Z,11.20
2023-03-21T07:49:01.045Z,11.30
2023-03-21T07:51:27.740Z,11.30
2023-03-21T07:53:54.777Z,11.40
2023-03-21T07:56:21.931Z,11.40
2023-03-21T07:58:48.535Z,11.40
2023-03-21T08:01:15.222Z,11.40
2023-03-21T08:03:41.897Z,11.40
2023-03-21T08:06:08.918Z,11.50
2023-03-21T08:08:35.705Z,11.50
2023-03-21T08:11:03.917Z,11.60
2023-03-21T08:13:30.654Z,11.70
2023-03-21T08:15:57.325Z,11.80
2023-03-21T08:18:24.162Z,11.90
2023-03-21T08:20:52.143Z,12.00
2023-03-21T08:23:18.854Z,12.10
2023-03-21T08:25:45.521Z,12.10
2023-03-21T08:28:12.193Z,12.00
2023-03-21T08:30:38.973Z,12.00
2023-03-21T08:33:05.620Z,11.90
2023-03-21T08:35:32.280Z,12.00
2023-03-21T08:37:59.045Z,12.00
2023-03-21T08:40:25.871Z,12.10
2023-03-21T08:42:52.584Z,12.10
2023-03-21T08:45:19.366Z,12.00
2023-03-21T08:47:46.737Z,12.10
2023-03-21T08:50:15.633Z,12.10
2023-03-21T08:52:42.525Z,12.10
2023-03-21T08:55:09.634Z,12.20
2023-03-21T08:57:36.706Z,12.20
2023-03-21T09:00:07.548Z,12.30
2023-03-21T09:02:34.154Z,12.20
2023-03-21T09:05:00.877Z,12.30
2023-03-21T09:07:27.938Z,12.30
2023-03-21T09:10:15.082Z,12.30
2023-03-21T09:12:44.527Z,12.30
2023-03-21T09:15:12.266Z,12.10
2023-03-21T09:17:42.441Z,11.90
2023-03-21T09:20:18.846Z,11.90
2023-03-21T09:22:47.441Z,11.80
2023-03-21T09:25:15.413Z,11.80
2023-03-21T09:27:44.893Z,11.90
2023-03-21T09:30:16.567Z,11.90
2023-03-21T09:32:48.276Z,12.00
2023-03-21T09:35:17.907Z,12.10
2023-03-21T09:37:47.996Z,12.20
2023-03-21T09:40:34.547Z,12.30
2023-03-21T09:43:27.117Z,12.40
2023-03-21T09:45:53.867Z,12.40
2023-03-21T09:48:56.673Z,12.40
2023-03-21T09:51:26.266Z,12.50
2023-03-21T09:53:55.937Z,12.50
2023-03-21T09:56:25.416Z,12.70
2023-03-21T09:58:54.767Z,12.70
2023-03-21T10:01:28.510Z,12.70
2023-03-21T10:04:04.730Z,12.80
2023-03-21T10:06:32.132Z,12.80
2023-03-21T10:09:01.475Z,12.80
2023-03-21T10:11:29.310Z,12.90
2023-03-21T10:13:57.589Z,13.00
2023-03-21T10:16:33.583Z,12.90
2023-03-21T10:19:02.843Z,13.00
2023-03-21T10:21:58.508Z,13.00
2023-03-21T10:24:17.561Z,13.00
2023-03-21T10:26:45.402Z,13.10
2023-03-21T10:29:16.796Z,13.20
2023-03-21T10:31:44.471Z,13.20
2023-03-21T10:34:26.118Z,13.10
2023-03-21T10:36:53.123Z,13.10
2023-03-21T10:39:34.021Z,13.10
2023-03-21T10:42:01.070Z,13.20
2023-03-21T10:44:40.557Z,13.30
2023-03-21T10:47:10.126Z,13.30
2023-03-21T10:49:56.369Z,13.40
2023-03-21T10:52:27.331Z,13.30
2023-03-21T10:55:07.828Z,13.10
2023-03-21T10:57:37.232Z,13.20
2023-03-21T11:00:17.041Z,13.20
2023-03-21T11:02:47.673Z,13.10
2023-03-21T11:05:20.900Z,13.10
2023-03-21T11:07:47.701Z,13.20
2023-03-21T11:10:20.044Z,13.30
2023-03-21T11:12:56.395Z,13.30
2023-03-21T11:15:27.247Z,13.30
2023-03-21T11:17:54.081Z,13.40
2023-03-21T11:20:20.724Z,13.50
2023-03-21T11:22:48.297Z,13.60
2023-03-21T11:25:21.099Z,13.60
2023-03-21T11:27:54.869Z,13.70
2023-03-21T11:30:26.160Z,13.70
2023-03-21T11:33:03.586Z,13.60
2023-03-21T11:35:38.348Z,13.60
2023-03-21T11:38:07.077Z,13.70
2023-03-21T11:40:34.480Z,13.70
2023-03-21T11:43:02.755Z,13.80
2023-03-21T11:45:30.848Z,13.90
2023-03-21T11:47:58.641Z,14.00
2023-03-21T11:50:36.257Z,14.00
2023-03-21T11:53:13.055Z,14.20
2023-03-21T11:55:40.130Z,14.20
2023-03-21T11:58:25.237Z,14.20
2023-03-21T12:01:03.491Z,14.20
2023-03-21T12:03:48.348Z,14.30
2023-03-21T12:06:27.522Z,14.50
2023-03-21T12:09:02.544Z,14.50
2023-03-21T12:11:50.450Z,14.50
2023-03-21T12:14:31.794Z,14.50
2023-03-21T12:17:17.199Z,14.60
2023-03-21T12:19:47.202Z,14.60
2023-03-21T12:22:13.834Z,14.60
2023-03-21T12:24:51.583Z,14.60
2023-03-21T12:27:18.227Z,14.60
2023-03-21T12:29:56.867Z,14.70
2023-03-21T12:32:26.718Z,14.70
2023-03-21T12:35:04.172Z,14.70
2023-03-21T12:37:52.043Z,14.70
2023-03-21T12:40:28.854Z,14.70
2023-03-21T12:43:13.075Z,14.80
2023-03-21T12:45:47.028Z,14.80
2023-03-21T12:48:33.109Z,14.90
2023-03-21T12:51:01.514Z,14.80
2023-03-21T12:53:31.525Z,15.10
2023-03-21T12:56:00.748Z,15.10
2023-03-21T12:58:28.702Z,15.00
2023-03-21T13:01:01.405Z,15.00
2023-03-21T13:03:40.196Z,15.10
2023-03-21T13:06:09.355Z,15.20
2023-03-21T13:08:51.262Z,15.20
2023-03-21T13:11:20.872Z,15.30
2023-03-21T13:13:47.485Z,15.40
2023-03-21T13:16:23.446Z,15.50
2023-03-21T13:19:04.677Z,15.60
2023-03-21T13:21:34.317Z,15.60
2023-03-21T13:24:02.297Z,15.80
2023-03-21T13:26:33.189Z,15.70
2023-03-21T13:29:00.680Z,15.80
2023-03-21T13:31:29.356Z,15.80
2023-03-21T13:33:59.425Z,15.90
2023-03-21T13:36:28.169Z,16.20
2023-03-21T13:38:59.672Z,16.40
2023-03-21T13:41:35.334Z,16.20
2023-03-21T13:44:01.973Z,16.20
2023-03-21T13:46:28.755Z,16.30
2023-03-21T13:49:00.517Z,16.10
2023-03-21T13:51:36.481Z,16.10
2023-03-21T13:54:09.261Z,16.00
2023-03-21T13:56:45.827Z,16.20
2023-03-21T13:59:13.354Z,16.40
2023-03-21T14:01:41.725Z,16.50
2023-03-21T14:04:19.235Z,16.50
2023-03-21T14:06:54.393Z,16.40
2023-03-21T14:09:27.131Z,16.40
2023-03-21T14:11:58.733Z,16.40
2023-03-21T14:14:33.771Z,16.40
2023-03-21T14:17:00.400Z,16.40
2023-03-21T14:19:31.339Z,16.40
2023-03-21T14:21:58.239Z,16.40
2023-03-21T14:24:24.859Z,16.30
2023-03-21T14:26:53.450Z,16.40
2023-03-21T14:29:29.986Z,16.30
2023-03-21T14:32:00.146Z,16.40
2023-03-21T14:34:28.461Z,16.60
2023-03-21T14:36:58.548Z,16.50
2023-03-21T14:39:30.713Z,16.40
2023-03-21T14:42:02.451Z,16.50
2023-03-21T14:44:56.374Z,16.50
2023-03-21T14:47:24.464Z,16.50
2023-03-21T14:49:52.702Z,16.50
2023-03-21T14:52:24.874Z,16.50
2023-03-21T14:54:52.284Z,16.60
2023-03-21T14:57:20.684Z,16.50
2023-03-21T14:59:50.688Z,16.50
2023-03-21T15:02:28.094Z,16.40
2023-03-21T15:04:57.255Z,16.60
2023-03-21T15:07:28.417Z,16.60
2023-03-21T15:09:56.500Z,16.60
2023-03-21T15:12:23.631Z,16.50
2023-03-21T15:14:50.490Z,16.50
2023-03-21T15:17:17.470Z,16.50
2023-03-21T15:19:44.365Z,16.60
2023-03-21T15:22:20.343Z,16.70
2023-03-21T15:24:50.947Z,16.70
2023-03-21T15:27:18.852Z,16.60
2023-03-21T15:29:45.778Z,16.60
2023-03-21T15:32:14.151Z,16.70
2023-03-21T15:34:40.970Z,16.80
2023-03-21T15:37:09.075Z,16.70
2023-03-21T15:39:38.651Z,16.70
2023-03-21T15:42:23.626Z,16.60
2023-03-21T15:44:53.205Z,16.50
2023-03-21T15:47:35.964Z,16.30
2023-03-21T15:50:06.895Z,16.30
2023-03-21T15:52:33.602Z,16.50
2023-03-21T15:55:02.865Z,16.40
2023-03-21T15:57:32.910Z,16.20
2023-03-21T16:00:26.090Z,16.20
2023-03-21T16:02:55.014Z,16.00
2023-03-21T16:05:21.683Z,15.90
2023-03-21T16:07:50.677Z,15.80
2023-03-21T16:10:26.767Z,15.80
2023-03-21T16:12:53.590Z,15.80
2023-03-21T16:15:20.257Z,15.70
2023-03-21T16:18:00.576Z,15.40
2023-03-21T16:20:28.930Z,15.20
2023-03-21T16:22:55.596Z,15.20
2023-03-21T16:25:22.635Z,15.00
2023-03-21T16:27:49.498Z,14.90
2023-03-21T16:30:19.013Z,14.90
2023-03-21T16:32:45.985Z,14.80
2023-03-21T16:35:12.717Z,14.80
2023-03-21T16:37:47.326Z,14.70
2023-03-21T16:40:22.051Z,14.60
2023-03-21T16:42:48.788Z,14.60
2023-03-21T16:45:15.505Z,14.40
2023-03-21T16:47:42.241Z,14.30
2023-03-21T16:50:19.192Z,14.30
2023-03-21T16:52:45.936Z,14.30
2023-03-21T16:55:12.838Z,14.20
2023-03-21T16:57:39.511Z,14.10
2023-03-21T17:00:07.529Z,14.10
2023-03-21T17:02:34.408Z,14.00
2023-03-21T17:05:03.744Z,13.90
2023-03-21T17:07:31.136Z,13.90
2023-03-21T17:09:58.000Z,13.80
2023-03-21T17:12:24.660Z,13.80
2023-03-21T17:14:51.459Z,13.70
2023-03-21T17:17:18.059Z,13.60
2023-03-21T17:19:44.671Z,13.50
2023-03-21T17:22:13.413Z,13.50
2023-03-21T17:24:41.217Z,13.50
2023-03-21T17:27:08.514Z,13.40
2023-03-21T17:29:35.407Z,13.40
2023-03-21T17:32:02.075Z,13.30
2023-03-21T17:34:28.732Z,13.30
2023-03-21T17:36:55.511Z,13.30
2023-03-21T17:39:26.605Z,13.20
2023-03-21T17:41:53.725Z,13.20
2023-03-21T17:44:20.946Z,13.20
2023-03-21T17:46:50.229Z,13.20
2023-03-21T17:49:17.913Z,13.10
2023-03-21T17:51:46.863Z,13.10
2023-03-21T17:54:13.681Z,13.10
2023-03-21T17:56:41.751Z,13.00
2023-03-21T17:59:12.007Z,13.00
2023-03-21T18:01:38.715Z,13.00
2023-03-21T18:04:07.099Z,12.90
2023-03-21T18:06:35.163Z,12.90
2023-03-21T18:09:21.647Z,12.90
2023-03-21T18:11:48.638Z,12.90
2023-03-21T18:14:19.097Z,12.80
2023-03-21T18:16:47.368Z,12.80
2023-03-21T18:19:14.529Z,12.80
2023-03-21T18:21:44.896Z,12.80
2023-03-21T18:24:13.579Z,12.80
2023-03-21T18:26:41.045Z,12.80
2023-03-21T18:32:08.820Z,12.70
2023-03-21T18:34:38.734Z,12.70
2023-03-21T18:37:07.949Z,12.70
2023-03-21T18:39:35.368Z,12.70
2023-03-21T18:42:05.735Z,12.60
2023-03-21T18:44:38.567Z,12.60
2023-03-21T18:47:08.894Z,12.60
2023-03-21T18:52:22.681Z,12.60
2023-03-21T18:54:52.110Z,12.60
2023-03-21T18:57:37.589Z,12.50
2023-03-21T19:00:13.302Z,12.50
2023-03-21T19:02:47.034Z,12.50
2023-03-21T19:05:16.094Z,12.50
2023-03-21T19:08:02.618Z,12.50
2023-03-21T19:43:53.521Z,12.10
2023-03-21T20:11:37.539Z,11.80
2023-03-21T20:27:42.827Z,11.80
2023-03-21T20:32:57.912Z,11.70
2023-03-21T20:35:47.973Z,11.70
2023-03-21T20:38:13.485Z,11.70
2023-03-21T20:41:02.050Z,11.60
2023-03-21T20:46:26.996Z,11.60
2023-03-21T20:48:53.821Z,11.40
2023-03-21T20:54:08.617Z,11.30
2023-03-21T20:56:35.325Z,11.20
2023-03-21T20:59:17.308Z,11.20
2023-03-21T21:01:45.354Z,11.20
2023-03-21T21:04:15.092Z,11.20
2023-03-21T21:06:42.081Z,11.20
2023-03-21T21:12:09.450Z,11.20
2023-03-21T21:14:37.968Z,11.20
2023-03-21T21:17:23.884Z,11.20
2023-03-21T21:19:51.976Z,11.20
2023-03-21T21:27:34.213Z,11.20
2023-03-21T21:28:56.453Z,11.10
2023-03-21T21:39:20.301Z,11.00
2023-03-21T21:41:11.038Z,10.90
2023-03-21T21:44:37.162Z,10.90
2023-03-21T21:47:04.839Z,10.90
2023-03-21T21:49:39.402Z,10.80
2023-03-21T21:52:08.682Z,10.80
2023-03-21T21:54:37.539Z,10.80
2023-03-21T21:57:04.244Z,10.80
2023-03-21T21:59:32.052Z,10.80
2023-03-21T22:01:58.707Z,10.70
2023-03-21T22:04:31.328Z,10.70
2023-03-21T22:07:02.101Z,10.80
2023-03-21T22:09:28.890Z,10.80
2023-03-21T22:11:56.616Z,10.80
2023-03-21T22:14:23.323Z,10.80
2023-03-21T22:16:49.980Z,10.80
2023-03-21T22:19:16.724Z,10.70
2023-03-21T22:21:43.370Z,10.70
2023-03-21T22:24:11.385Z,10.70
2023-03-21T22:26:39.590Z,10.60
2023-03-21T22:29:08.265Z,10.60
2023-03-21T22:31:38.861Z,10.50
2023-03-21T22:34:05.518Z,10.50
2023-03-21T22:36:32.176Z,10.60
2023-03-21T22:38:59.038Z,10.60
2023-03-21T22:41:25.857Z,10.60
2023-03-21T22:43:52.732Z,10.70
2023-03-21T22:46:19.390Z,10.70
2023-03-21T22:48:46.203Z,10.70
2023-03-21T22:51:13.076Z,10.70
2023-03-21T22:53:39.890Z,10.70
2023-03-21T22:56:06.961Z,10.60
2023-03-21T22:58:33.549Z,10.70
2023-03-21T23:01:01.495Z,10.70
2023-03-21T23:03:28.210Z,10.70
2023-03-21T23:05:58.425Z,10.70
2023-03-21T23:08:25.338Z,10.70
2023-03-21T23:10:51.934Z,10.70
2023-03-21T23:13:18.874Z,10.70
2023-03-21T23:15:45.702Z,10.70
2023-03-21T23:18:12.360Z,10.60
2023-03-21T23:20:39.282Z,10.50
2023-03-21T23:23:06.079Z,10.50
2023-03-21T23:25:33.648Z,10.50
2023-03-21T23:28:00.358Z,10.40
2023-03-21T23:30:27.048Z,10.40
2023-03-21T23:32:53.728Z,10.40
2023-03-21T23:35:20.626Z,10.40
2023-03-21T23:37:52.543Z,10.40
2023-03-21T23:40:20.142Z,10.50
2023-03-21T23:42:46.728Z,10.50
2023-03-21T23:45:13.425Z,10.50
2023-03-21T23:47:40.226Z,10.50
2023-03-21T23:50:07.857Z,10.60
2023-03-21T23:52:34.592Z,10.50
2023-03-21T23:55:01.373Z,10.50
2023-03-21T23:57:30.346Z,10.50
2023-03-21T23:59:58.065Z,10.50
